Time;durP1;ratioP1;P1;durP2;ratioP2;P2;SDS_P1;SDS_P2;PMS_P1;PMS_P2;Temp;Humidity;BMP_temperature;BMP_pressure;BME280_temperature;BME280_humidity;BME280_pressure;Samples;Min_cycle;Max_cycle;Signal;HPM_P1;HPM_P2
2021/07/18 00:01:46;;;;;;;1999.90;999.90;;;7.40;99.90;;;;;;5076339;28;20175;-60
2021/07/18 00:04:13;;;;;;;1999.90;999.90;;;7.40;99.90;;;;;;5076194;28;20198;-60
2021/07/18 00:06:40;;;;;;;1999.90;999.90;;;7.30;99.90;;;;;;5076120;28;20199;-59
2021/07/18 00:09:08;;;;;;;1999.90;999.90;;;7.40;99.90;;;;;;5076160;28;20165;-44
2021/07/18 00:11:35;;;;;;;1999.90;999.90;;;7.30;99.90;;;;;;5076126;28;20171;-59
2021/07/18 00:14:03;;;;;;;1999.90;999.90;;;7.30;99.90;;;;;;5076080;28;20295;-58
2021/07/18 00:16:29;;;;;;;1999.90;999.90;;;7.30;99.90;;;;;;5076129;28;20641;-60
2021/07/18 00:18:56;;;;;;;1999.90;999.90;;;7.30;99.90;;;;;;5075891;28;20172;-57
2021/07/18 00:21:24;;;;;;;1999.90;999.90;;;7.30;99.90;;;;;;5075975;28;20175;-59
2021/07/18 00:23:52;;;;;;;1999.90;999.90;;;7.20;99.90;;;;;;5075933;28;20171;-58
2021/07/18 00:26:19;;;;;;;1999.90;999.90;;;7.20;99.90;;;;;;5075799;28;20212;-60
2021/07/18 00:28:46;;;;;;;1999.90;999.90;;;7.20;99.90;;;;;;5075799;28;20176;-60
2021/07/18 00:31:13;;;;;;;1999.90;999.90;;;7.20;99.90;;;;;;5075762;28;20165;-48
2021/07/18 00:33:40;;;;;;;1999.90;999.90;;;7.30;99.90;;;;;;5075978;28;20176;-57
2021/07/18 00:36:07;;;;;;;1999.90;999.90;;;7.30;99.90;;;;;;5075752;28;20521;-59
2021/07/18 00:38:33;;;;;;;1999.90;999.90;;;7.30;99.90;;;;;;5075720;28;20167;-60
2021/07/18 00:41:00;;;;;;;1999.90;999.90;;;7.20;99.90;;;;;;5075593;28;20247;-59
2021/07/18 00:43:27;;;;;;;1999.90;999.90;;;7.30;99.90;;;;;;5076163;28;20212;-44
2021/07/18 00:46:01;;;;;;;1999.90;999.90;;;7.30;99.90;;;;;;5075452;28;20210;-60
2021/07/18 00:48:30;;;;;;;1999.90;999.90;;;7.20;99.90;;;;;;5074883;28;20535;-59
2021/07/18 00:50:58;;;;;;;1999.90;999.90;;;7.20;99.90;;;;;;5075033;28;20233;-60
2021/07/18 00:53:26;;;;;;;1999.90;999.90;;;7.20;99.90;;;;;;5075295;28;20634;-60
2021/07/18 00:55:53;;;;;;;1999.90;999.90;;;7.20;99.90;;;;;;5075362;28;20172;-47
2021/07/18 00:58:21;;;;;;;1999.90;999.90;;;7.10;99.90;;;;;;5075217;28;20172;-59
2021/07/18 01:00:48;;;;;;;1999.90;999.90;;;7.00;99.90;;;;;;5075266;28;20211;-60
2021/07/18 01:03:16;;;;;;;1999.90;999.90;;;7.00;99.90;;;;;;5075198;28;20172;-59
2021/07/18 01:05:43;;;;;;;1999.90;999.90;;;7.00;99.90;;;;;;5075054;28;20627;-48
2021/07/18 01:08:11;;;;;;;1999.90;999.90;;;7.00;99.90;;;;;;5075113;28;20569;-60
2021/07/18 01:10:38;;;;;;;1999.90;999.90;;;6.90;99.90;;;;;;5075062;28;20642;-59
2021/07/18 01:13:05;;;;;;;1999.90;999.90;;;6.90;99.90;;;;;;5075002;28;20668;-59
2021/07/18 01:15:32;;;;;;;1999.90;999.90;;;7.00;99.90;;;;;;5074797;28;20258;-58
2021/07/18 01:17:59;;;;;;;1999.90;999.90;;;7.00;99.90;;;;;;5074892;28;20281;-59
2021/07/18 01:20:27;;;;;;;1999.90;999.90;;;7.00;99.90;;;;;;5074927;28;20164;-56
2021/07/18 01:22:55;;;;;;;1999.90;999.90;;;7.00;99.90;;;;;;5074770;28;20169;-55
2021/07/18 01:25:22;;;;;;;1999.90;999.90;;;7.00;99.90;;;;;;5074635;28;20543;-59
2021/07/18 01:27:49;;;;;;;1999.90;999.90;;;7.00;99.90;;;;;;5074689;28;20171;-47
2021/07/18 01:30:16;;;;;;;1999.90;999.90;;;7.00;99.90;;;;;;5074573;28;20561;-50
2021/07/18 01:32:43;;;;;;;1999.90;999.90;;;6.90;99.90;;;;;;5073453;28;20191;-47
2021/07/18 01:35:11;;;;;;;1999.90;999.90;;;6.90;99.90;;;;;;5074856;28;20183;-61
2021/07/18 01:37:39;;;;;;;1999.90;999.90;;;6.90;99.90;;;;;;5074457;28;20185;-60
2021/07/18 01:40:10;;;;;;;1999.90;999.90;;;6.90;99.90;;;;;;5074438;28;20613;-48
2021/07/18 01:42:40;;;;;;;1999.90;999.90;;;6.80;99.90;;;;;;5074679;28;20160;-60
2021/07/18 01:45:07;;;;;;;1999.90;999.90;;;6.80;99.90;;;;;;5074214;28;20295;-59
2021/07/18 01:47:34;;;;;;;1999.90;999.90;;;6.70;99.90;;;;;;5074366;28;20197;-60
2021/07/18 01:50:03;;;;;;;1999.90;999.90;;;6.70;99.90;;;;;;5074279;28;20175;-60
2021/07/18 01:52:30;;;;;;;1999.90;999.90;;;6.70;99.90;;;;;;5074263;28;20172;-60
2021/07/18 01:54:57;;;;;;;1999.90;999.90;;;6.70;99.90;;;;;;5074196;28;20203;-60
2021/07/18 01:57:23;;;;;;;1999.90;999.90;;;6.70;99.90;;;;;;5074093;28;20579;-50
2021/07/18 01:59:50;;;;;;;1999.90;999.90;;;6.60;99.90;;;;;;5074010;28;20178;-60
2021/07/18 02:02:17;;;;;;;1999.90;999.90;;;6.60;99.90;;;;;;5074025;28;20178;-56
2021/07/18 02:04:47;;;;;;;1999.90;999.90;;;6.60;99.90;;;;;;5074059;28;20639;-47
2021/07/18 02:07:16;;;;;;;1999.90;999.90;;;6.60;99.90;;;;;;5074061;28;20259;-53
2021/07/18 02:09:43;;;;;;;1999.90;999.90;;;6.60;99.90;;;;;;5073896;28;20630;-59
2021/07/18 02:12:11;;;;;;;1999.90;999.90;;;6.60;99.90;;;;;;5073798;28;20175;-60
2021/07/18 02:14:41;;;;;;;1999.90;999.90;;;6.70;99.90;;;;;;5073603;28;20298;-60
2021/07/18 02:17:08;;;;;;;1999.90;999.90;;;6.70;99.90;;;;;;5073675;28;20190;-45
2021/07/18 02:19:35;;;;;;;1999.90;999.90;;;6.70;99.90;;;;;;5073587;28;20172;-59
2021/07/18 02:22:03;;;;;;;1999.90;999.90;;;6.60;99.90;;;;;;5073679;28;20164;-59
2021/07/18 02:24:30;;;;;;;1999.90;999.90;;;6.50;99.90;;;;;;5073533;28;20171;-59
2021/07/18 02:26:58;;;;;;;1999.90;999.90;;;6.40;99.90;;;;;;5073575;28;20184;-45
2021/07/18 02:29:25;;;;;;;1999.90;999.90;;;6.40;99.90;;;;;;5073521;28;20182;-45
2021/07/18 02:31:56;;;;;;;1999.90;999.90;;;6.30;99.90;;;;;;5073451;28;20165;-46
2021/07/18 02:34:22;;;;;;;1999.90;999.90;;;6.30;99.90;;;;;;5073400;28;20312;-54
2021/07/18 02:36:49;;;;;;;1999.90;999.90;;;6.30;99.90;;;;;;5073407;28;20180;-57
2021/07/18 02:39:16;;;;;;;1999.90;999.90;;;6.20;99.90;;;;;;5073647;28;20516;-45
2021/07/18 02:41:43;;;;;;;1999.90;999.90;;;6.20;99.90;;;;;;5073338;28;20641;-56
2021/07/18 02:44:10;;;;;;;1999.90;999.90;;;6.10;99.90;;;;;;5073224;28;20162;-53
2021/07/18 02:46:37;;;;;;;1999.90;999.90;;;6.10;99.90;;;;;;5073192;28;20230;-59
2021/07/18 02:49:04;;;;;;;1999.90;999.90;;;6.10;99.90;;;;;;5073196;28;20251;-59
2021/07/18 02:51:31;;;;;;;1999.90;999.90;;;6.20;99.90;;;;;;5073169;28;20172;-60
2021/07/18 02:53:58;;;;;;;1999.90;999.90;;;6.20;99.90;;;;;;5073133;28;20178;-56
2021/07/18 02:56:25;;;;;;;1999.90;999.90;;;6.10;99.90;;;;;;5073099;28;20164;-44
2021/07/18 02:58:51;;;;;;;1999.90;999.90;;;6.00;99.90;;;;;;5073195;28;20182;-44
2021/07/18 03:01:18;;;;;;;1999.90;999.90;;;6.00;99.90;;;;;;5073107;28;20615;-59
2021/07/18 03:03:45;;;;;;;1999.90;999.90;;;6.00;99.90;;;;;;5073100;28;20178;-59
2021/07/18 03:06:12;;;;;;;1999.90;999.90;;;6.00;99.90;;;;;;5072785;28;20215;-45
2021/07/18 03:08:39;;;;;;;1999.90;999.90;;;6.00;99.90;;;;;;5072818;28;20177;-59
2021/07/18 03:11:06;;;;;;;1999.90;999.90;;;6.10;99.90;;;;;;5072842;28;20176;-60
2021/07/18 03:13:33;;;;;;;1999.90;999.90;;;6.20;99.90;;;;;;5072450;28;20172;-45
2021/07/18 03:16:00;;;;;;;1999.90;999.90;;;6.20;99.90;;;;;;5072742;28;20703;-59
2021/07/18 03:18:27;;;;;;;1999.90;999.90;;;6.20;99.90;;;;;;5072879;28;20246;-46
2021/07/18 03:20:54;;;;;;;1999.90;999.90;;;6.20;99.90;;;;;;5072703;28;20176;-44
2021/07/18 03:23:20;;;;;;;1999.90;999.90;;;6.10;99.90;;;;;;5072955;28;20167;-58
2021/07/18 03:25:47;;;;;;;1999.90;999.90;;;6.30;99.90;;;;;;5072817;28;20608;-58
2021/07/18 03:28:14;;;;;;;1999.90;999.90;;;6.30;99.90;;;;;;5072743;28;20190;-49
2021/07/18 03:30:41;;;;;;;1999.90;999.90;;;6.20;99.90;;;;;;5072808;28;20171;-55
2021/07/18 03:33:08;;;;;;;1999.90;999.90;;;6.10;99.90;;;;;;5072710;28;20219;-59
2021/07/18 03:35:34;;;;;;;1999.90;999.90;;;6.20;99.90;;;;;;5072732;28;20177;-59
2021/07/18 03:38:01;;;;;;;1999.90;999.90;;;6.10;99.90;;;;;;5072612;28;20168;-59
2021/07/18 03:40:28;;;;;;;1999.90;999.90;;;6.20;99.90;;;;;;5072694;28;20585;-59
2021/07/18 03:42:56;;;;;;;1999.90;999.90;;;6.00;99.90;;;;;;5072614;28;20529;-44
2021/07/18 03:45:23;;;;;;;1999.90;999.90;;;5.90;99.90;;;;;;5072495;28;20211;-48
2021/07/18 03:47:50;;;;;;;1999.90;999.90;;;5.90;99.90;;;;;;5072763;28;20199;-44
2021/07/18 03:50:18;;;;;;;1999.90;999.90;;;5.80;99.90;;;;;;5072520;28;20254;-59
2021/07/18 03:52:45;;;;;;;1999.90;999.90;;;5.70;99.90;;;;;;5072543;28;20165;-57
2021/07/18 03:55:14;;;;;;;1999.90;999.90;;;5.70;99.90;;;;;;5072450;28;20678;-59
2021/07/18 03:57:41;;;;;;;1999.90;999.90;;;5.70;99.90;;;;;;5072445;28;20173;-45
2021/07/18 04:00:08;;;;;;;1999.90;999.90;;;5.60;99.90;;;;;;5072509;28;20184;-60
2021/07/18 04:02:35;;;;;;;1999.90;999.90;;;5.70;99.90;;;;;;5072454;28;20204;-57
2021/07/18 04:05:02;;;;;;;1999.90;999.90;;;5.70;99.90;;;;;;5072361;28;20196;-46
2021/07/18 04:07:32;;;;;;;1999.90;999.90;;;5.60;99.90;;;;;;5072389;28;20179;-59
2021/07/18 04:10:04;;;;;;;1999.90;999.90;;;5.70;99.90;;;;;;5072282;28;20694;-59
2021/07/18 04:12:30;;;;;;;1999.90;999.90;;;5.80;99.90;;;;;;5072351;28;20168;-59
2021/07/18 04:14:57;;;;;;;1999.90;999.90;;;5.70;99.90;;;;;;5072113;28;20225;-59
2021/07/18 04:17:24;;;;;;;1999.90;999.90;;;5.60;99.90;;;;;;5072380;28;20184;-47
2021/07/18 04:19:51;;;;;;;1999.90;999.90;;;5.50;99.90;;;;;;5072111;28;20184;-59
2021/07/18 04:22:19;;;;;;;1999.90;999.90;;;5.60;99.90;;;;;;5072320;28;20213;-59
2021/07/18 04:24:45;;;;;;;1999.90;999.90;;;5.60;99.90;;;;;;5073675;28;20171;-59
2021/07/18 04:27:12;;;;;;;1999.90;999.90;;;5.70;99.90;;;;;;5075829;28;20176;-57
2021/07/18 04:29:39;;;;;;;1999.90;999.90;;;5.70;99.90;;;;;;5075789;28;20250;-59
2021/07/18 04:32:06;;;;;;;1999.90;999.90;;;5.70;99.90;;;;;;5075658;28;20569;-46
2021/07/18 04:34:33;;;;;;;1999.90;999.90;;;5.60;99.90;;;;;;5075580;28;20470;-47
2021/07/18 04:37:00;;;;;;;1999.90;999.90;;;5.60;99.90;;;;;;5075631;28;20172;-59
2021/07/18 04:39:28;;;;;;;1999.90;999.90;;;5.60;99.90;;;;;;5075730;28;20173;-59
2021/07/18 04:41:55;;;;;;;1999.90;999.90;;;5.50;99.90;;;;;;5075692;28;20538;-59
2021/07/18 04:44:21;;;;;;;1999.90;999.90;;;5.50;99.90;;;;;;5075392;28;20244;-59
2021/07/18 04:46:50;;;;;;;1999.90;999.90;;;5.50;99.90;;;;;;5075397;28;20286;-59
2021/07/18 04:49:16;;;;;;;1999.90;999.90;;;5.50;99.90;;;;;;5075610;28;20172;-60
2021/07/18 04:51:43;;;;;;;1999.90;999.90;;;5.50;99.90;;;;;;5075348;28;20543;-55
2021/07/18 04:54:10;;;;;;;1999.90;999.90;;;5.50;99.90;;;;;;5075372;28;20256;-59
2021/07/18 04:56:37;;;;;;;1999.90;999.90;;;5.40;99.90;;;;;;5075245;28;20255;-57
2021/07/18 04:59:04;;;;;;;1999.90;999.90;;;5.40;99.90;;;;;;5075237;28;20455;-56
2021/07/18 05:01:30;;;;;;;1999.90;999.90;;;5.50;99.90;;;;;;5075203;28;20167;-50
2021/07/18 05:03:57;;;;;;;1999.90;999.90;;;5.40;99.90;;;;;;5075196;28;20173;-59
2021/07/18 05:06:24;;;;;;;1999.90;999.90;;;5.50;99.90;;;;;;5075016;28;20197;-49
2021/07/18 05:08:51;;;;;;;1999.90;999.90;;;5.40;99.90;;;;;;5075085;28;20186;-59
2021/07/18 05:11:20;;;;;;;1999.90;999.90;;;5.40;99.90;;;;;;5075075;28;20172;-56
2021/07/18 05:13:51;;;;;;;1999.90;999.90;;;5.30;99.90;;;;;;5074723;28;20172;-59
2021/07/18 05:16:18;;;;;;;1999.90;999.90;;;5.20;99.90;;;;;;5074899;28;20171;-53
2021/07/18 05:18:46;;;;;;;1999.90;999.90;;;5.20;99.90;;;;;;5074865;28;20168;-57
2021/07/18 05:21:13;;;;;;;1999.90;999.90;;;5.20;99.90;;;;;;5074852;28;20195;-49
2021/07/18 05:23:40;;;;;;;1999.90;999.90;;;5.10;99.90;;;;;;5074835;28;20172;-59
2021/07/18 05:26:07;;;;;;;1999.90;999.90;;;5.10;99.90;;;;;;5074704;28;20271;-59
2021/07/18 05:28:34;;;;;;;1999.90;999.90;;;5.10;99.90;;;;;;5074788;28;20223;-56
2021/07/18 05:31:00;;;;;;;1999.90;999.90;;;5.10;99.90;;;;;;5074740;28;20240;-48
2021/07/18 05:33:27;;;;;;;1999.90;999.90;;;5.10;99.90;;;;;;5074724;28;20265;-49
2021/07/18 05:35:55;;;;;;;1999.90;999.90;;;5.10;99.90;;;;;;5074204;28;20278;-59
2021/07/18 05:38:21;;;;;;;1999.90;999.90;;;5.10;99.90;;;;;;5074400;28;20176;-44
2021/07/18 05:40:48;;;;;;;1999.90;999.90;;;5.10;99.90;;;;;;5074457;28;20600;-59
2021/07/18 05:43:15;;;;;;;1999.90;999.90;;;5.10;99.90;;;;;;5074365;28;20178;-51
2021/07/18 05:45:42;;;;;;;1999.90;999.90;;;5.00;99.90;;;;;;5074307;28;20203;-59
2021/07/18 05:48:09;;;;;;;1999.90;999.90;;;5.00;99.90;;;;;;5074545;28;20219;-59
2021/07/18 05:50:36;;;;;;;1999.90;999.90;;;4.90;99.90;;;;;;5074335;28;20177;-59
2021/07/18 05:53:03;;;;;;;1999.90;999.90;;;4.90;99.90;;;;;;5074299;28;20179;-58
2021/07/18 05:55:30;;;;;;;1999.90;999.90;;;4.90;99.90;;;;;;5074271;28;20182;-44
2021/07/18 05:57:58;;;;;;;1999.90;999.90;;;4.90;99.90;;;;;;5074140;28;20167;-60
2021/07/18 06:00:25;;;;;;;1999.90;999.90;;;4.90;99.90;;;;;;5074053;28;20626;-59
2021/07/18 06:02:52;;;;;;;1999.90;999.90;;;4.90;99.90;;;;;;5074034;28;20243;-48
2021/07/18 06:05:19;;;;;;;1999.90;999.90;;;5.00;99.90;;;;;;5073797;28;20201;-47
2021/07/18 06:07:46;;;;;;;1999.90;999.90;;;5.00;99.90;;;;;;5073885;28;20169;-59
2021/07/18 06:10:13;;;;;;;1999.90;999.90;;;5.00;99.90;;;;;;5073894;28;20172;-53
2021/07/18 06:12:40;;;;;;;1999.90;999.90;;;5.00;99.90;;;;;;5073831;28;20172;-59
2021/07/18 06:15:07;;;;;;;1999.90;999.90;;;5.00;99.90;;;;;;5073547;28;20320;-53
2021/07/18 06:17:38;;;;;;;1999.90;999.90;;;5.10;99.90;;;;;;5073805;28;20242;-45
2021/07/18 06:20:09;;;;;;;1999.90;999.90;;;5.10;99.90;;;;;;5073793;28;20253;-59
2021/07/18 06:22:36;;;;;;;1999.90;999.90;;;5.10;99.90;;;;;;5073803;28;20230;-45
2021/07/18 06:25:05;;;;;;;1999.90;999.90;;;5.20;99.90;;;;;;5073539;28;20258;-48
2021/07/18 06:27:32;;;;;;;1999.90;999.90;;;5.20;99.90;;;;;;5073316;28;20259;-57
2021/07/18 06:29:59;;;;;;;1999.90;999.90;;;5.30;99.90;;;;;;5073246;28;20250;-59
2021/07/18 06:32:27;;;;;;;1999.90;999.90;;;5.30;99.90;;;;;;5073170;28;20173;-57
2021/07/18 06:34:54;;;;;;;1999.90;999.90;;;5.40;99.90;;;;;;5072993;28;20275;-45
2021/07/18 06:37:21;;;;;;;1999.90;999.90;;;5.50;99.90;;;;;;5072954;28;20168;-56
2021/07/18 06:39:47;;;;;;;1999.90;999.90;;;5.60;99.90;;;;;;5073049;28;20654;-55
2021/07/18 06:42:14;;;;;;;1999.90;999.90;;;5.70;99.90;;;;;;5072976;28;20175;-47
2021/07/18 06:44:41;;;;;;;1999.90;999.90;;;5.80;99.90;;;;;;5072821;28;20219;-50
2021/07/18 06:47:09;;;;;;;1999.90;999.90;;;5.90;99.90;;;;;;5072436;28;20176;-54
2021/07/18 06:49:36;;;;;;;1999.90;999.90;;;6.00;99.90;;;;;;5072979;28;20163;-58
2021/07/18 06:52:03;;;;;;;1999.90;999.90;;;6.10;99.90;;;;;;5072806;28;20230;-47
2021/07/18 06:54:30;;;;;;;1999.90;999.90;;;6.20;99.90;;;;;;5072829;28;20166;-53
2021/07/18 06:56:57;;;;;;;1999.90;999.90;;;6.30;99.90;;;;;;5072841;28;20165;-59
2021/07/18 06:59:23;;;;;;;1999.90;999.90;;;6.40;99.90;;;;;;5072783;28;20529;-49
2021/07/18 07:01:50;;;;;;;1999.90;999.90;;;6.50;99.90;;;;;;5072823;28;20205;-57
2021/07/18 07:04:17;;;;;;;1999.90;999.90;;;6.70;99.90;;;;;;5072789;28;20176;-46
2021/07/18 07:06:44;;;;;;;1999.90;999.90;;;6.80;99.90;;;;;;5072640;28;20191;-59
2021/07/18 07:09:11;;;;;;;1999.90;999.90;;;6.90;99.90;;;;;;5072707;28;20168;-45
2021/07/18 07:11:37;;;;;;;1999.90;999.90;;;7.10;99.90;;;;;;5072744;28;20684;-45
2021/07/18 07:14:04;;;;;;;1999.90;999.90;;;7.20;99.90;;;;;;5072536;28;20223;-51
2021/07/18 07:16:31;;;;;;;1999.90;999.90;;;7.30;99.90;;;;;;5072380;28;20546;-53
2021/07/18 07:19:00;;;;;;;1999.90;999.90;;;7.40;99.90;;;;;;5072580;28;20202;-57
2021/07/18 07:21:27;;;;;;;1999.90;999.90;;;7.50;99.90;;;;;;5072454;28;20226;-57
2021/07/18 07:23:54;;;;;;;1999.90;999.90;;;7.60;99.90;;;;;;5072361;28;20168;-57
2021/07/18 07:26:21;;;;;;;1999.90;999.90;;;7.80;99.90;;;;;;5072340;28;20253;-57
2021/07/18 07:28:48;;;;;;;1999.90;999.90;;;7.90;99.90;;;;;;5072305;28;20179;-52
2021/07/18 07:31:15;;;;;;;1999.90;999.90;;;8.00;99.90;;;;;;5072352;28;20180;-52
2021/07/18 07:33:42;;;;;;;1999.90;999.90;;;8.10;99.90;;;;;;5072529;28;20195;-47
2021/07/18 07:36:09;;;;;;;1999.90;999.90;;;8.40;99.90;;;;;;5072504;28;20210;-46
2021/07/18 07:38:36;;;;;;;1999.90;999.90;;;8.50;99.90;;;;;;5072456;28;20171;-57
2021/07/18 07:41:03;;;;;;;1999.90;999.90;;;8.70;99.90;;;;;;5072439;28;20188;-53
2021/07/18 07:43:30;;;;;;;1999.90;999.90;;;8.80;99.90;;;;;;5072439;28;20164;-49
2021/07/18 07:45:57;;;;;;;1999.90;999.90;;;8.90;99.90;;;;;;5072181;28;20347;-53
2021/07/18 07:48:25;;;;;;;1999.90;999.90;;;9.00;99.90;;;;;;5072325;28;20179;-51
2021/07/18 07:50:53;;;;;;;1999.90;999.90;;;9.10;99.90;;;;;;5072590;28;20176;-47
2021/07/18 07:53:20;;;;;;;1999.90;999.90;;;9.30;99.90;;;;;;5072291;28;20172;-57
2021/07/18 07:55:47;;;;;;;1999.90;999.90;;;9.30;99.90;;;;;;5072322;28;20165;-58
2021/07/18 07:58:14;;;;;;;1999.90;999.90;;;9.50;99.90;;;;;;5073083;28;20184;-57
2021/07/18 08:00:41;;;;;;;1999.90;999.90;;;9.60;99.90;;;;;;5076175;28;20172;-58
2021/07/18 08:03:11;;;;;;;1999.90;999.90;;;9.80;99.90;;;;;;5076057;28;20634;-56
2021/07/18 08:05:38;;;;;;;1999.90;999.90;;;9.90;99.90;;;;;;5075939;28;20218;-57
2021/07/18 08:08:06;;;;;;;1999.90;999.90;;;10.10;99.90;;;;;;5075852;28;20181;-58
2021/07/18 08:10:33;;;;;;;1999.90;999.90;;;10.30;99.90;;;;;;5075834;28;20275;-48
2021/07/18 08:13:00;;;;;;;1999.90;999.90;;;10.50;99.90;;;;;;5075870;28;20630;-50
2021/07/18 08:15:27;;;;;;;1999.90;999.90;;;10.70;99.90;;;;;;5075630;28;20307;-47
2021/07/18 08:17:54;;;;;;;1999.90;999.90;;;10.70;99.90;;;;;;5075815;28;20180;-47
2021/07/18 08:20:23;;;;;;;1999.90;999.90;;;10.90;99.90;;;;;;5075680;28;20184;-47
2021/07/18 08:22:52;;;;;;;1999.90;999.90;;;11.00;99.90;;;;;;5075477;28;20184;-49
2021/07/18 08:25:21;;;;;;;1999.90;999.90;;;11.20;99.90;;;;;;5075506;28;20216;-52
2021/07/18 08:27:54;;;;;;;1999.90;999.90;;;11.40;99.90;;;;;;5075766;28;20192;-49
2021/07/18 08:30:22;;;;;;;1999.90;999.90;;;11.40;99.90;;;;;;5074593;28;20687;-51
2021/07/18 08:32:51;;;;;;;1999.90;999.90;;;11.50;99.90;;;;;;5075675;28;20171;-49
2021/07/18 08:35:19;;;;;;;1999.90;999.90;;;11.70;99.90;;;;;;5075368;28;20212;-47
2021/07/18 08:37:46;;;;;;;1999.90;999.90;;;12.00;99.90;;;;;;5075408;28;20196;-46
2021/07/18 08:40:14;;;;;;;1999.90;999.90;;;12.40;99.90;;;;;;5075396;28;20186;-50
2021/07/18 08:42:42;;;;;;;1999.90;999.90;;;12.50;99.90;;;;;;5075204;28;20238;-47
2021/07/18 08:45:10;;;;;;;1999.90;999.90;;;12.60;99.90;;;;;;5075052;28;20196;-58
2021/07/18 08:47:38;;;;;;;1999.90;999.90;;;12.70;99.90;;;;;;5075292;28;20226;-47
2021/07/18 08:50:06;;;;;;;1999.90;999.90;;;13.10;99.90;;;;;;5075148;28;20169;-47
2021/07/18 08:52:33;;;;;;;1999.90;999.90;;;13.20;99.90;;;;;;5075135;28;20183;-47
2021/07/18 08:55:01;;;;;;;1999.90;999.90;;;13.50;99.90;;;;;;5075154;28;20173;-47
2021/07/18 08:57:28;;;;;;;1999.90;999.90;;;13.50;99.90;;;;;;5074894;28;20277;-49
2021/07/18 08:59:55;;;;;;;1999.90;999.90;;;13.50;99.90;;;;;;5074953;28;20172;-56
2021/07/18 09:02:22;;;;;;;1999.90;999.90;;;13.70;99.90;;;;;;5074778;28;20172;-48
2021/07/18 09:04:49;;;;;;;1999.90;999.90;;;13.90;99.90;;;;;;5075213;28;20267;-48
2021/07/18 09:07:19;;;;;;;1999.90;999.90;;;14.10;99.90;;;;;;5074906;28;20634;-49
2021/07/18 09:09:48;;;;;;;1999.90;999.90;;;14.30;99.90;;;;;;5074134;28;20175;-47
2021/07/18 09:12:17;;;;;;;1999.90;999.90;;;14.50;99.90;;;;;;5074714;28;20238;-58
2021/07/18 09:14:48;;;;;;;1999.90;999.90;;;14.70;99.90;;;;;;5074252;28;20273;-48
2021/07/18 09:17:18;;;;;;;1999.90;999.90;;;15.00;99.90;;;;;;5074480;28;20305;-48
2021/07/18 09:19:49;;;;;;;1999.90;999.90;;;15.30;99.90;;;;;;5074443;28;20187;-53
2021/07/18 09:22:18;;;;;;;1999.90;999.90;;;15.40;99.90;;;;;;5074440;28;20522;-57
2021/07/18 09:24:54;;;;;;;1999.90;999.90;;;15.60;99.90;;;;;;5074336;28;20222;-47
2021/07/18 09:27:32;;;;;;;1999.90;999.90;;;15.90;99.90;;;;;;5074537;28;20528;-47
2021/07/18 09:30:14;;;;;;;1999.90;999.90;;;16.10;99.90;;;;;;5074210;28;20497;-51
2021/07/18 09:32:46;;;;;;;1999.90;999.90;;;16.30;99.20;;;;;;5074277;28;20196;-47
2021/07/18 09:35:16;;;;;;;1999.90;999.90;;;16.40;95.50;;;;;;5074471;28;20187;-57
2021/07/18 09:37:45;;;;;;;1999.90;999.90;;;16.70;95.30;;;;;;5073926;28;20529;-49
2021/07/18 09:40:20;;;;;;;1999.90;999.90;;;16.90;88.60;;;;;;5074096;28;20171;-53
2021/07/18 09:42:49;;;;;;;1999.90;999.90;;;17.00;86.90;;;;;;5074122;28;20266;-48
2021/07/18 09:45:30;;;;;;;1999.90;999.90;;;17.10;88.20;;;;;;5074008;28;20564;-48
2021/07/18 09:48:07;;;;;;;1999.90;999.90;;;17.30;86.90;;;;;;5073963;28;20169;-49
2021/07/18 09:50:39;;;;;;;1999.90;999.90;;;17.40;85.50;;;;;;5074069;28;20556;-54
2021/07/18 09:53:23;;;;;;;1999.90;999.90;;;17.60;79.00;;;;;;5073949;28;20168;-48
2021/07/18 09:56:09;;;;;;;1999.90;999.90;;;17.70;77.80;;;;;;5074102;28;20157;-54
2021/07/18 09:58:56;;;;;;;1999.90;999.90;;;17.80;82.90;;;;;;5073831;28;20172;-48
2021/07/18 10:01:23;;;;;;;1999.90;999.90;;;18.00;82.80;;;;;;5074045;28;20149;-59
2021/07/18 10:03:52;;;;;;;1999.90;999.90;;;18.00;84.90;;;;;;5073931;28;20200;-54
2021/07/18 10:06:21;;;;;;;1999.90;999.90;;;18.10;76.90;;;;;;5073801;28;20577;-56
2021/07/18 10:08:50;;;;;;;1999.90;999.90;;;18.10;82.40;;;;;;5074017;28;20169;-49
2021/07/18 10:11:25;;;;;;;1999.90;999.90;;;18.30;80.70;;;;;;5073660;28;20165;-53
2021/07/18 10:13:54;;;;;;;1999.90;999.90;;;18.50;80.50;;;;;;5073591;28;20156;-57
2021/07/18 10:16:22;;;;;;;1999.90;999.90;;;18.70;72.80;;;;;;5073810;28;20172;-57
2021/07/18 10:18:51;;;;;;;1999.90;999.90;;;18.80;68.30;;;;;;5073760;28;20164;-58
2021/07/18 10:21:24;;;;;;;1999.90;999.90;;;19.00;73.90;;;;;;5073193;28;20244;-57
2021/07/18 10:23:53;;;;;;;1999.90;999.90;;;19.10;80.90;;;;;;5073381;28;20603;-48
2021/07/18 10:26:24;;;;;;;1999.90;999.90;;;19.20;73.80;;;;;;5073317;28;20251;-53
2021/07/18 10:28:53;;;;;;;1999.90;999.90;;;19.30;71.30;;;;;;5073676;28;20611;-56
2021/07/18 10:31:32;;;;;;;1999.90;999.90;;;19.30;73.10;;;;;;5073452;28;20169;-59
2021/07/18 10:34:02;;;;;;;1999.90;999.90;;;19.50;78.90;;;;;;5073485;28;20260;-52
2021/07/18 10:36:30;;;;;;;1999.90;999.90;;;19.60;80.20;;;;;;5073328;28;20207;-57
2021/07/18 10:38:57;;;;;;;1999.90;999.90;;;19.70;80.30;;;;;;5073400;28;20691;-58
2021/07/18 10:41:44;;;;;;;1999.90;999.90;;;19.80;77.50;;;;;;5073279;28;20172;-58
2021/07/18 10:44:18;;;;;;;1999.90;999.90;;;19.90;81.00;;;;;;5073117;28;20239;-48
2021/07/18 10:46:45;;;;;;;1999.90;999.90;;;20.00;73.90;;;;;;5073048;28;20204;-48
2021/07/18 10:49:14;;;;;;;1999.90;999.90;;;20.10;76.50;;;;;;5073000;28;20587;-48
2021/07/18 10:51:50;;;;;;;1999.90;999.90;;;20.40;64.20;;;;;;5073036;28;20171;-50
2021/07/18 10:54:19;;;;;;;1999.90;999.90;;;20.50;62.20;;;;;;5073140;28;20176;-49
2021/07/18 10:56:48;;;;;;;1999.90;999.90;;;20.60;61.90;;;;;;5073088;28;20163;-57
2021/07/18 10:59:36;;;;;;;1999.90;999.90;;;20.60;56.60;;;;;;5073017;28;20167;-52
2021/07/18 11:02:08;;;;;;;1999.90;999.90;;;20.70;53.80;;;;;;5073245;28;20255;-50
2021/07/18 11:04:47;;;;;;;1999.90;999.90;;;20.80;54.70;;;;;;5073016;28;20259;-47
2021/07/18 11:07:28;;;;;;;1999.90;999.90;;;20.90;56.20;;;;;;5072827;28;20223;-49
2021/07/18 11:10:12;;;;;;;1999.90;999.90;;;20.90;54.40;;;;;;5072735;28;20196;-56
2021/07/18 11:12:46;;;;;;;1999.90;999.90;;;21.00;53.80;;;;;;5072665;28;20160;-57
2021/07/18 11:15:45;;;;;;;1999.90;999.90;;;21.00;52.80;;;;;;5072317;28;20228;-53
2021/07/18 11:18:17;;;;;;;1999.90;999.90;;;21.20;53.00;;;;;;5060750;28;20192;-51
2021/07/18 11:20:55;;;;;;;1999.90;999.90;;;21.20;54.40;;;;;;5072513;28;20183;-58
2021/07/18 11:23:47;;;;;;;1999.90;999.90;;;21.40;55.60;;;;;;5072529;28;20191;-58
2021/07/18 11:26:18;;;;;;;1999.90;999.90;;;21.40;55.00;;;;;;5072404;28;20213;-57
2021/07/18 11:28:49;;;;;;;1999.90;999.90;;;21.50;53.00;;;;;;5071330;28;20172;-57
2021/07/18 11:31:35;;;;;;;1999.90;999.90;;;21.60;54.30;;;;;;5072567;28;20168;-57
2021/07/18 11:34:04;;;;;;;1999.90;999.90;;;21.60;55.20;;;;;;5074879;28;20247;-57
2021/07/18 11:36:40;;;;;;;1999.90;999.90;;;21.70;53.20;;;;;;5076729;28;20168;-58
2021/07/18 11:39:16;;;;;;;1999.90;999.90;;;21.80;54.20;;;;;;5074842;28;20175;-57
2021/07/18 11:41:44;;;;;;;1999.90;999.90;;;21.80;53.60;;;;;;5076401;28;20168;-58
2021/07/18 11:44:15;;;;;;;1999.90;999.90;;;21.90;55.50;;;;;;5076108;28;20168;-58
2021/07/18 11:46:47;;;;;;;1999.90;999.90;;;22.00;54.40;;;;;;5076314;28;20663;-58
2021/07/18 11:49:17;;;;;;;1999.90;999.90;;;22.10;54.10;;;;;;5076403;28;20163;-57
2021/07/18 11:51:47;;;;;;;1999.90;999.90;;;22.20;55.70;;;;;;5076333;28;20176;-58
2021/07/18 11:54:16;;;;;;;1999.90;999.90;;;22.20;53.90;;;;;;5076423;28;20569;-55
2021/07/18 11:56:45;;;;;;;1999.90;999.90;;;22.30;54.90;;;;;;5076404;28;20160;-56
2021/07/18 11:59:15;;;;;;;1999.90;999.90;;;22.40;52.50;;;;;;5076457;28;20218;-59
2021/07/18 12:01:44;;;;;;;1999.90;999.90;;;22.50;52.90;;;;;;5076245;28;20175;-59
2021/07/18 12:04:19;;;;;;;1999.90;999.90;;;22.50;53.80;;;;;;5075975;28;20631;-58
2021/07/18 12:06:46;;;;;;;1999.90;999.90;;;22.60;53.30;;;;;;5075776;28;20606;-59
2021/07/18 12:09:18;;;;;;;1999.90;999.90;;;22.60;54.80;;;;;;5076051;28;20165;-59
2021/07/18 12:11:48;;;;;;;1999.90;999.90;;;22.60;50.60;;;;;;5076274;28;20569;-59
2021/07/18 12:14:16;;;;;;;1999.90;999.90;;;22.80;49.90;;;;;;5075693;28;20189;-58